createdAt,value
2022-07-29T00:01:06.652Z,96586.66
2022-07-29T00:04:03.570Z,96581.69
2022-07-29T00:07:00.432Z,96576.50
2022-07-29T00:09:57.397Z,96575.38
2022-07-29T00:12:54.263Z,96576.25
2022-07-29T00:15:52.220Z,96576.06
2022-07-29T00:18:49.109Z,96582.00
2022-07-29T00:21:45.982Z,96578.09
2022-07-29T00:24:43.024Z,96583.22
2022-07-29T00:27:40.428Z,96581.63
2022-07-29T00:30:37.275Z,96578.13
2022-07-29T00:33:34.165Z,96570.13
2022-07-29T00:36:30.993Z,96575.78
2022-07-29T00:39:27.855Z,96560.66
2022-07-29T00:42:25.758Z,96563.38
2022-07-29T00:45:23.198Z,96568.91
2022-07-29T00:48:20.131Z,96566.53
2022-07-29T00:51:16.991Z,96560.16
2022-07-29T00:54:14.163Z,96553.44
2022-07-29T00:57:12.211Z,96550.22
2022-07-29T01:00:13.975Z,96541.16
2022-07-29T01:03:10.836Z,96538.59
2022-07-29T01:06:07.766Z,96538.59
2022-07-29T01:09:04.930Z,96535.88
2022-07-29T01:12:02.924Z,96531.06
2022-07-29T01:15:01.868Z,96531.69
2022-07-29T01:18:22.213Z,96522.88
2022-07-29T01:21:58.559Z,96518.94
2022-07-29T01:25:33.909Z,96525.91
2022-07-29T01:28:55.578Z,96523.75
2022-07-29T01:32:28.051Z,96517.00
2022-07-29T01:35:54.440Z,96511.75
2022-07-29T01:39:08.161Z,96511.59
2022-07-29T01:42:28.851Z,96510.81
2022-07-29T01:45:42.816Z,96509.84
2022-07-29T01:48:53.945Z,96516.84
2022-07-29T01:51:58.469Z,96517.16
2022-07-29T01:54:59.738Z,96513.50
2022-07-29T01:57:58.589Z,96505.41
2022-07-29T02:00:58.260Z,96510.97
2022-07-29T02:03:58.179Z,96513.91
2022-07-29T02:06:57.972Z,96514.81
2022-07-29T02:09:56.835Z,96503.03
2022-07-29T02:12:57.400Z,96499.44
2022-07-29T02:15:56.916Z,96500.03
2022-07-29T02:18:56.651Z,96497.59
2022-07-29T02:21:55.751Z,96501.00
2022-07-29T02:24:54.059Z,96499.97
2022-07-29T02:27:52.336Z,96492.97
2022-07-29T02:30:52.007Z,96490.00
2022-07-29T02:33:50.712Z,96493.91
2022-07-29T02:36:49.517Z,96490.78
2022-07-29T02:39:49.769Z,96486.13
2022-07-29T02:42:48.179Z,96478.81
2022-07-29T02:45:48.270Z,96486.31
2022-07-29T02:49:29.250Z,96479.19
2022-07-29T02:52:35.793Z,96476.91
2022-07-29T02:55:45.823Z,96477.47
2022-07-29T02:58:50.517Z,96475.47
2022-07-29T03:01:47.977Z,96476.44
2022-07-29T03:04:47.032Z,96472.56
2022-07-29T03:07:50.418Z,96476.88
2022-07-29T03:10:48.552Z,96478.09
2022-07-29T03:13:45.910Z,96475.84
2022-07-29T03:16:43.184Z,96468.63
2022-07-29T03:19:40.543Z,96481.09
2022-07-29T03:22:47.943Z,96481.97
2022-07-29T03:25:44.979Z,96475.44
2022-07-29T03:28:41.968Z,96487.97
2022-07-29T03:31:38.975Z,96484.34
2022-07-29T03:34:40.501Z,96484.91
2022-07-29T03:37:37.622Z,96492.22
2022-07-29T03:40:50.763Z,96496.53
2022-07-29T03:43:50.570Z,96493.38
2022-07-29T03:46:49.668Z,96486.56
2022-07-29T03:49:49.558Z,96490.53
2022-07-29T03:52:47.659Z,96486.94
2022-07-29T03:55:49.123Z,96489.53
2022-07-29T03:58:46.222Z,96496.97
2022-07-29T04:01:44.715Z,96505.88
2022-07-29T04:04:41.782Z,96506.44
2022-07-29T04:07:38.664Z,96499.78
2022-07-29T04:10:36.065Z,96500.91
2022-07-29T04:13:33.802Z,96493.56
2022-07-29T04:16:30.827Z,96493.81
2022-07-29T04:19:27.863Z,96505.63
2022-07-29T04:22:24.707Z,96495.50
2022-07-29T04:25:22.082Z,96498.00
2022-07-29T04:28:18.909Z,96495.28
2022-07-29T04:31:15.828Z,96492.47
2022-07-29T04:34:14.012Z,96492.59
2022-07-29T04:37:11.062Z,96498.66
2022-07-29T04:40:08.617Z,96493.56
2022-07-29T04:43:05.703Z,96500.78
2022-07-29T04:46:04.778Z,96496.19
2022-07-29T04:49:01.750Z,96496.41
2022-07-29T04:51:58.982Z,96497.31
2022-07-29T04:54:55.878Z,96491.91
2022-07-29T04:57:52.702Z,96484.38
2022-07-29T05:00:49.612Z,96482.81
2022-07-29T05:03:46.609Z,96486.72
2022-07-29T05:06:43.446Z,96485.59
2022-07-29T05:09:40.300Z,96482.47
2022-07-29T05:12:37.258Z,96478.53
2022-07-29T05:15:36.026Z,96483.34
2022-07-29T05:18:32.881Z,96480.50
2022-07-29T05:21:29.728Z,96478.00
2022-07-29T05:24:26.900Z,96477.66
2022-07-29T05:27:23.750Z,96483.84
2022-07-29T05:30:21.278Z,96483.81
2022-07-29T05:33:35.975Z,96475.00
2022-07-29T05:36:33.794Z,96474.97
2022-07-29T05:39:46.587Z,96474.69
2022-07-29T05:42:45.071Z,96478.75
2022-07-29T05:45:49.963Z,96473.63
2022-07-29T05:48:47.392Z,96483.88
2022-07-29T05:51:44.280Z,96483.09
2022-07-29T05:54:41.206Z,96484.44
2022-07-29T05:57:38.048Z,96479.59
2022-07-29T06:00:35.345Z,96484.84
2022-07-29T06:03:32.213Z,96484.59
2022-07-29T06:06:29.080Z,96485.38
2022-07-29T06:09:26.909Z,96485.50
2022-07-29T06:12:24.386Z,96492.66
2022-07-29T06:15:21.259Z,96487.41
2022-07-29T06:18:18.182Z,96493.34
2022-07-29T06:21:15.104Z,96488.34
2022-07-29T06:24:16.467Z,96482.66
2022-07-29T06:27:13.591Z,96479.59
2022-07-29T06:30:10.968Z,96489.06
2022-07-29T06:33:08.059Z,96492.81
2022-07-29T06:36:06.752Z,96479.47
2022-07-29T06:39:08.420Z,96486.63
2022-07-29T06:42:06.138Z,96480.06
2022-07-29T06:45:08.994Z,96484.28
2022-07-29T06:48:06.433Z,96483.84
2022-07-29T06:51:05.346Z,96476.50
2022-07-29T06:54:03.734Z,96474.34
2022-07-29T06:57:00.804Z,96476.47
2022-07-29T06:59:57.991Z,96471.94
2022-07-29T07:02:54.896Z,96471.44
2022-07-29T07:05:54.757Z,96478.81
2022-07-29T07:08:51.600Z,96473.22
2022-07-29T07:11:49.487Z,96465.47
2022-07-29T07:14:47.027Z,96461.41
2022-07-29T07:17:43.961Z,96469.66
2022-07-29T07:20:40.993Z,96463.59
2022-07-29T07:23:38.133Z,96472.66
2022-07-29T07:26:34.975Z,96485.06
2022-07-29T07:29:31.814Z,96478.00
2022-07-29T07:32:28.668Z,96476.44
2022-07-29T07:35:25.516Z,96470.38
2022-07-29T07:38:22.365Z,96467.25
2022-07-29T07:41:19.192Z,96469.38
2022-07-29T07:44:16.357Z,96471.19
2022-07-29T07:47:13.665Z,96470.13
2022-07-29T07:50:18.493Z,96471.78
2022-07-29T07:53:16.015Z,96468.47
2022-07-29T07:56:13.220Z,96462.78
2022-07-29T07:59:10.082Z,96458.72
2022-07-29T08:02:10.259Z,96464.34
2022-07-29T08:05:12.647Z,96461.34
2022-07-29T08:08:09.850Z,96453.03
2022-07-29T08:11:09.743Z,96455.03
2022-07-29T08:14:06.876Z,96450.06
2022-07-29T08:17:04.269Z,96449.00
2022-07-29T08:20:01.083Z,96446.78
2022-07-29T08:22:57.920Z,96449.22
2022-07-29T08:25:54.988Z,96450.94
2022-07-29T08:28:51.898Z,96445.47
2022-07-29T08:31:48.840Z,96453.03
2022-07-29T08:34:47.135Z,96446.47
2022-07-29T08:37:43.979Z,96445.81
2022-07-29T08:40:40.843Z,96440.34
2022-07-29T08:43:39.098Z,96441.88
2022-07-29T08:46:40.015Z,96438.38
2022-07-29T08:49:37.091Z,96444.25
2022-07-29T08:52:38.765Z,96440.63
2022-07-29T08:55:35.915Z,96432.50
2022-07-29T08:58:37.047Z,96428.91
2022-07-29T09:01:42.915Z,96423.91
2022-07-29T09:04:42.548Z,96425.63
2022-07-29T09:07:40.907Z,96429.34
2022-07-29T09:10:37.918Z,96417.88
2022-07-29T09:13:35.415Z,96423.16
2022-07-29T09:16:55.337Z,96417.38
2022-07-29T09:19:53.334Z,96420.16
2022-07-29T09:22:54.084Z,96417.91
2022-07-29T09:25:50.975Z,96419.56
2022-07-29T09:28:47.806Z,96430.31
2022-07-29T09:31:50.741Z,96420.75
2022-07-29T09:34:47.892Z,96417.59
2022-07-29T09:37:45.827Z,96418.31
2022-07-29T09:40:56.640Z,96408.75
2022-07-29T09:43:57.875Z,96413.25
2022-07-29T09:47:07.051Z,96423.66
2022-07-29T09:50:04.436Z,96417.78
2022-07-29T09:53:01.252Z,96417.78
2022-07-29T09:55:58.327Z,96423.69
2022-07-29T09:59:08.249Z,96423.31
2022-07-29T10:02:17.724Z,96420.28
2022-07-29T10:05:36.710Z,96427.59
2022-07-29T10:08:33.852Z,96435.81
2022-07-29T10:11:36.529Z,96439.34
2022-07-29T10:14:46.281Z,96450.34
2022-07-29T10:17:43.792Z,96455.47
2022-07-29T10:20:41.396Z,96464.53
2022-07-29T10:23:46.154Z,96467.66
2022-07-29T10:26:45.647Z,96471.19
2022-07-29T10:29:42.691Z,96474.31
2022-07-29T10:33:19.273Z,96470.78
2022-07-29T10:36:34.561Z,96473.13
2022-07-29T10:40:01.823Z,96467.66
2022-07-29T10:43:15.891Z,96473.16
2022-07-29T10:46:14.455Z,96478.94
2022-07-29T10:49:24.726Z,96480.88
2022-07-29T10:52:26.637Z,96486.34
2022-07-29T10:55:43.420Z,96486.03
2022-07-29T10:58:41.083Z,96489.72
2022-07-29T11:01:39.290Z,96493.63
2022-07-29T11:04:45.258Z,96482.94
2022-07-29T11:08:20.287Z,96477.91
2022-07-29T11:11:22.242Z,96487.38
2022-07-29T11:14:45.195Z,96472.56
2022-07-29T11:18:05.299Z,96465.88
2022-07-29T11:21:02.286Z,96463.84
2022-07-29T11:24:28.857Z,96460.13
2022-07-29T11:27:32.773Z,96458.53
2022-07-29T11:30:56.064Z,96468.47
2022-07-29T11:33:55.742Z,96464.00
2022-07-29T11:37:10.040Z,96477.31
2022-07-29T11:40:08.046Z,96474.00
2022-07-29T11:43:07.220Z,96478.78
2022-07-29T11:46:04.457Z,96467.88
2022-07-29T11:49:03.257Z,96467.91
2022-07-29T11:52:06.377Z,96458.53
2022-07-29T11:55:09.671Z,96459.75
2022-07-29T11:58:07.011Z,96454.50
2022-07-29T12:01:05.072Z,96442.38
2022-07-29T12:04:09.261Z,96437.69
2022-07-29T12:10:11.653Z,96417.19
2022-07-29T12:13:22.181Z,96413.31
2022-07-29T12:16:25.375Z,96412.59
2022-07-29T12:19:27.678Z,96403.69
2022-07-29T12:22:38.139Z,96398.38
2022-07-29T12:25:38.072Z,96400.47
2022-07-29T12:28:39.562Z,96398.66
2022-07-29T12:31:44.170Z,96394.44
2022-07-29T12:34:42.416Z,96392.47
2022-07-29T12:37:42.666Z,96386.63
2022-07-29T12:40:39.725Z,96393.41
2022-07-29T12:43:36.729Z,96394.06
2022-07-29T12:46:33.833Z,96390.16
2022-07-29T12:49:30.758Z,96384.63
2022-07-29T12:52:35.756Z,96388.94
2022-07-29T12:55:45.233Z,96387.34
2022-07-29T12:58:44.524Z,96385.91
2022-07-29T13:01:42.339Z,96388.06
2022-07-29T13:04:39.361Z,96377.03
2022-07-29T13:07:54.559Z,96375.94
2022-07-29T13:10:53.867Z,96382.16
2022-07-29T13:14:03.092Z,96379.41
2022-07-29T13:17:28.305Z,96372.81
2022-07-29T13:20:31.037Z,96369.44
2022-07-29T13:23:27.925Z,96367.94
2022-07-29T13:26:24.782Z,96370.00
2022-07-29T13:29:21.645Z,96368.53
2022-07-29T13:32:28.258Z,96373.75
2022-07-29T13:35:25.859Z,96368.06
2022-07-29T13:38:22.726Z,96363.34
2022-07-29T13:41:28.097Z,96355.31
2022-07-29T13:44:25.487Z,96354.44
2022-07-29T13:47:32.680Z,96346.50
2022-07-29T13:50:30.213Z,96342.09
2022-07-29T13:53:28.774Z,96332.50
2022-07-29T13:56:25.651Z,96345.91
2022-07-29T13:59:22.531Z,96337.88
2022-07-29T14:02:19.520Z,96339.47
2022-07-29T14:05:16.492Z,96345.75
2022-07-29T14:08:13.353Z,96333.25
2022-07-29T14:11:13.309Z,96337.94
2022-07-29T14:14:11.269Z,96334.81
2022-07-29T14:17:10.854Z,96326.91
2022-07-29T14:20:08.181Z,96331.59
2022-07-29T14:23:05.030Z,96333.28
2022-07-29T14:26:02.282Z,96335.56
2022-07-29T14:28:59.510Z,96337.16
2022-07-29T14:31:56.681Z,96333.38
2022-07-29T14:34:53.708Z,96332.78
2022-07-29T14:37:50.781Z,96325.66
2022-07-29T14:40:47.753Z,96323.72
2022-07-29T14:43:47.729Z,96316.13
2022-07-29T14:46:44.887Z,96309.56
2022-07-29T14:49:45.364Z,96305.84
2022-07-29T14:52:42.266Z,96307.22
2022-07-29T14:55:40.352Z,96307.28
2022-07-29T14:58:37.338Z,96299.56
2022-07-29T15:01:45.899Z,96315.50
2022-07-29T15:04:42.721Z,96297.03
2022-07-29T15:07:39.643Z,96300.84
2022-07-29T15:10:36.509Z,96300.06
2022-07-29T15:13:34.724Z,96296.22
2022-07-29T15:16:31.627Z,96295.72
2022-07-29T15:19:28.927Z,96297.50
2022-07-29T15:22:26.031Z,96308.66
2022-07-29T15:25:24.553Z,96303.63
2022-07-29T15:28:22.587Z,96304.53
2022-07-29T15:31:22.221Z,96309.09
2022-07-29T15:34:21.389Z,96311.66
2022-07-29T15:37:18.494Z,96299.97
2022-07-29T15:40:15.682Z,96296.63
2022-07-29T15:43:12.891Z,96308.00
2022-07-29T15:46:31.705Z,96307.69
2022-07-29T15:49:47.607Z,96307.78
2022-07-29T15:52:47.009Z,96303.28
2022-07-29T15:55:44.560Z,96307.56
2022-07-29T15:58:41.578Z,96307.84
2022-07-29T16:01:38.554Z,96312.63
2022-07-29T16:04:39.694Z,96307.69
2022-07-29T16:07:37.786Z,96314.84
2022-07-29T16:10:34.871Z,96313.03
2022-07-29T16:13:32.137Z,96311.28
2022-07-29T16:16:29.047Z,96305.50
2022-07-29T16:19:25.915Z,96304.88
2022-07-29T16:22:22.755Z,96322.78
2022-07-29T16:25:19.651Z,96314.97
2022-07-29T16:28:17.205Z,96323.31
2022-07-29T16:31:14.734Z,96316.66
2022-07-29T16:34:11.585Z,96328.03
2022-07-29T16:37:08.435Z,96328.06
2022-07-29T16:40:11.406Z,96324.47
2022-07-29T16:43:08.831Z,96324.97
2022-07-29T16:46:09.436Z,96333.38
2022-07-29T16:49:10.950Z,96335.91
2022-07-29T16:52:08.034Z,96351.91
2022-07-29T16:55:05.794Z,96354.78
2022-07-29T16:58:03.223Z,96364.59
2022-07-29T17:01:00.551Z,96388.03
2022-07-29T17:04:06.421Z,96417.31
2022-07-29T17:07:03.516Z,96471.47
2022-07-29T17:10:03.988Z,96478.00
2022-07-29T17:13:01.119Z,96488.19
2022-07-29T17:16:00.661Z,96508.41
2022-07-29T17:18:57.888Z,96497.03
2022-07-29T17:22:03.313Z,96498.72
2022-07-29T17:25:04.737Z,96497.31
2022-07-29T17:28:01.714Z,96503.19
2022-07-29T17:30:58.623Z,96506.22
2022-07-29T17:33:59.821Z,96498.56
2022-07-29T17:36:57.510Z,96484.78
2022-07-29T17:39:58.626Z,96481.34
2022-07-29T17:42:57.339Z,96489.41
2022-07-29T17:45:56.863Z,96478.88
2022-07-29T17:48:57.422Z,96494.84
2022-07-29T17:51:57.653Z,96503.69
2022-07-29T17:54:57.553Z,96528.81
2022-07-29T17:57:58.360Z,96545.03
2022-07-29T18:00:56.983Z,96526.91
2022-07-29T18:03:57.197Z,96531.53
2022-07-29T18:06:56.868Z,96550.00
2022-07-29T18:09:56.363Z,96563.88
2022-07-29T18:12:56.958Z,96570.38
2022-07-29T18:15:58.696Z,96571.31
2022-07-29T18:18:57.080Z,96581.88
2022-07-29T18:21:55.211Z,96594.16
2022-07-29T18:24:53.468Z,96601.84
2022-07-29T18:27:50.718Z,96606.13
2022-07-29T18:30:48.096Z,96604.66
2022-07-29T18:33:44.929Z,96603.31
2022-07-29T18:36:41.771Z,96613.50
2022-07-29T18:39:38.611Z,96619.19
2022-07-29T18:42:35.498Z,96621.28
2022-07-29T18:45:32.795Z,96630.66
2022-07-29T18:48:31.523Z,96626.16
2022-07-29T18:51:28.442Z,96629.00
2022-07-29T18:54:25.348Z,96633.50
2022-07-29T18:57:55.368Z,96629.94
2022-07-29T19:00:39.131Z,96633.38
2022-07-29T19:03:35.984Z,96631.16
2022-07-29T19:06:32.878Z,96618.91
2022-07-29T19:09:30.141Z,96627.66
2022-07-29T19:12:27.310Z,96632.16
2022-07-29T19:15:24.246Z,96629.00
2022-07-29T19:18:21.071Z,96629.06
2022-07-29T19:21:17.995Z,96626.44
2022-07-29T19:24:15.772Z,96638.19
2022-07-29T19:27:12.998Z,96638.78
2022-07-29T19:30:10.383Z,96634.16
2022-07-29T19:33:07.340Z,96633.63
2022-07-29T19:36:04.456Z,96639.03
2022-07-29T19:39:01.289Z,96642.28
2022-07-29T19:42:02.919Z,96640.84
2022-07-29T19:45:00.267Z,96640.00
2022-07-29T19:48:01.272Z,96638.69
2022-07-29T19:50:58.685Z,96639.81
2022-07-29T19:53:55.512Z,96640.38
2022-07-29T19:56:52.434Z,96624.94
2022-07-29T19:59:49.397Z,96612.69
2022-07-29T20:02:46.689Z,96614.59
2022-07-29T20:05:43.714Z,96616.97
2022-07-29T20:08:45.364Z,96607.97
2022-07-29T20:11:42.201Z,96605.28
2022-07-29T20:14:39.117Z,96602.06
2022-07-29T20:17:39.421Z,96614.81
2022-07-29T20:20:36.911Z,96605.72
2022-07-29T20:23:33.818Z,96590.56
2022-07-29T20:26:31.192Z,96595.47
2022-07-29T20:29:28.036Z,96602.81
2022-07-29T20:32:24.867Z,96607.16
2022-07-29T20:35:22.437Z,96613.97
2022-07-29T20:38:19.318Z,96611.94
2022-07-29T20:41:16.167Z,96608.34
2022-07-29T20:44:14.916Z,96592.63
2022-07-29T20:47:11.874Z,96605.88
2022-07-29T20:50:10.078Z,96606.72
2022-07-29T20:53:06.923Z,96596.66
2022-07-29T20:56:04.053Z,96593.22
2022-07-29T20:59:00.984Z,96602.25
2022-07-29T21:01:57.937Z,96600.81
2022-07-29T21:04:54.810Z,96591.91
2022-07-29T21:07:54.368Z,96596.69
2022-07-29T21:10:54.726Z,96598.13
2022-07-29T21:13:51.903Z,96598.75
2022-07-29T21:16:50.181Z,96577.63
2022-07-29T21:19:47.226Z,96585.72
2022-07-29T21:22:45.040Z,96577.50
2022-07-29T21:25:41.881Z,96572.53
2022-07-29T21:28:40.569Z,96567.06
2022-07-29T21:31:37.391Z,96568.88
2022-07-29T21:34:34.275Z,96562.78
2022-07-29T21:37:31.230Z,96556.66
2022-07-29T21:40:28.136Z,96549.44
2022-07-29T21:43:26.653Z,96539.22
2022-07-29T21:46:24.443Z,96535.81
2022-07-29T21:49:21.534Z,96546.03
2022-07-29T21:52:18.602Z,96562.22
2022-07-29T21:55:15.487Z,96560.97
2022-07-29T21:58:15.567Z,96544.84
2022-07-29T22:01:12.446Z,96527.16
2022-07-29T22:04:09.340Z,96524.19
2022-07-29T22:07:06.203Z,96518.78
2022-07-29T22:10:03.581Z,96507.75
2022-07-29T22:13:01.746Z,96523.97
2022-07-29T22:15:58.562Z,96532.63
2022-07-29T22:18:55.391Z,96532.06
2022-07-29T22:21:52.206Z,96527.75
2022-07-29T22:24:49.075Z,96530.59
2022-07-29T22:27:45.996Z,96531.97
2022-07-29T22:30:42.881Z,96527.19
2022-07-29T22:33:39.788Z,96526.19
2022-07-29T22:36:36.627Z,96514.06
2022-07-29T22:39:33.466Z,96506.03
2022-07-29T22:42:30.426Z,96495.78
2022-07-29T22:45:27.238Z,96503.44
2022-07-29T22:48:24.070Z,96534.78
2022-07-29T22:51:21.017Z,96534.88
2022-07-29T22:54:18.072Z,96510.63
2022-07-29T22:57:14.901Z,96529.94
2022-07-29T23:00:13.499Z,96518.16
2022-07-29T23:03:10.338Z,96523.31
2022-07-29T23:06:07.399Z,96528.94
2022-07-29T23:09:04.500Z,96534.00
2022-07-29T23:12:01.428Z,96548.78
2022-07-29T23:14:58.290Z,96537.34
2022-07-29T23:17:55.204Z,96554.63
2022-07-29T23:20:52.074Z,96552.13
2022-07-29T23:23:49.458Z,96566.00
2022-07-29T23:26:46.318Z,96568.22
2022-07-29T23:29:43.129Z,96553.69
2022-07-29T23:32:39.996Z,96549.97
2022-07-29T23:35:36.820Z,96546.28
2022-07-29T23:38:33.676Z,96536.06
2022-07-29T23:41:31.428Z,96538.94
2022-07-29T23:44:28.300Z,96550.75
2022-07-29T23:47:25.147Z,96564.69
2022-07-29T23:50:21.984Z,96543.31
2022-07-29T23:53:18.838Z,96542.13
2022-07-29T23:56:15.741Z,96538.25
2022-07-29T23:59:12.585Z,96549.00
